sensor_id;sensor_type;location;lat;lon;timestamp;temperature;humidity
48686;DHT22;34485;51.536;3.816;2022-09-27T00:01:38;10.80;99.90
48686;DHT22;34485;51.536;3.816;2022-09-27T00:04:04;10.80;99.90
48686;DHT22;34485;51.536;3.816;2022-09-27T00:06:30;10.80;99.90
48686;DHT22;34485;51.536;3.816;2022-09-27T00:08:57;10.70;99.90
48686;DHT22;34485;51.536;3.816;2022-09-27T00:26:10;10.70;99.90
48686;DHT22;34485;51.536;3.816;2022-09-27T00:28:36;10.70;99.90
48686;DHT22;34485;51.536;3.816;2022-09-27T00:31:02;10.70;99.90
48686;DHT22;34485;51.536;3.816;2022-09-27T00:33:27;10.60;99.90
48686;DHT22;34485;51.536;3.816;2022-09-27T00:35:53;10.50;99.90
48686;DHT22;34485;51.536;3.816;2022-09-27T00:38:19;10.50;99.90
48686;DHT22;34485;51.536;3.816;2022-09-27T00:40:45;10.40;99.90
48686;DHT22;34485;51.536;3.816;2022-09-27T00:43:22;10.40;99.90
48686;DHT22;34485;51.536;3.816;2022-09-27T00:45:59;10.40;99.90
48686;DHT22;34485;51.536;3.816;2022-09-27T00:48:30;10.40;99.90
48686;DHT22;34485;51.536;3.816;2022-09-27T00:51:00;10.30;99.90
48686;DHT22;34485;51.536;3.816;2022-09-27T00:53:30;10.30;99.90
48686;DHT22;34485;51.536;3.816;2022-09-27T00:56:15;10.30;99.90
48686;DHT22;34485;51.536;3.816;2022-09-27T00:58:46;10.20;99.90
48686;DHT22;34485;51.536;3.816;2022-09-27T01:01:12;10.20;99.90
48686;DHT22;34485;51.536;3.816;2022-09-27T01:06:23;9.70;99.90
48686;DHT22;34485;51.536;3.816;2022-09-27T01:08:49;9.80;99.90
48686;DHT22;34485;51.536;3.816;2022-09-27T01:19:41;9.40;99.90
48686;DHT22;34485;51.536;3.816;2022-09-27T01:22:26;9.40;99.90
48686;DHT22;34485;51.536;3.816;2022-09-27T01:25:10;9.50;99.90
48686;DHT22;34485;51.536;3.816;2022-09-27T01:28:05;9.50;99.90
48686;DHT22;34485;51.536;3.816;2022-09-27T01:30:44;9.60;99.90
48686;DHT22;34485;51.536;3.816;2022-09-27T01:41:32;9.70;99.90
48686;DHT22;34485;51.536;3.816;2022-09-27T01:44:04;9.80;99.90
48686;DHT22;34485;51.536;3.816;2022-09-27T01:46:36;9.80;99.90
48686;DHT22;34485;51.536;3.816;2022-09-27T01:49:09;9.80;99.90
48686;DHT22;34485;51.536;3.816;2022-09-27T01:51:44;9.70;99.90
48686;DHT22;34485;51.536;3.816;2022-09-27T01:54:16;9.80;99.90
48686;DHT22;34485;51.536;3.816;2022-09-27T01:56:54;9.80;99.90
48686;DHT22;34485;51.536;3.816;2022-09-27T01:59:30;9.70;99.90
48686;DHT22;34485;51.536;3.816;2022-09-27T02:02:03;9.60;99.90
48686;DHT22;34485;51.536;3.816;2022-09-27T02:04:32;9.60;99.90
48686;DHT22;34485;51.536;3.816;2022-09-27T02:07:14;9.60;99.90
48686;DHT22;34485;51.536;3.816;2022-09-27T02:10:05;9.60;99.90
48686;DHT22;34485;51.536;3.816;2022-09-27T02:12:39;9.60;99.90
48686;DHT22;34485;51.536;3.816;2022-09-27T02:15:08;9.60;99.90
48686;DHT22;34485;51.536;3.816;2022-09-27T02:17:46;9.60;99.90
48686;DHT22;34485;51.536;3.816;2022-09-27T02:23:14;9.60;99.90
48686;DHT22;34485;51.536;3.816;2022-09-27T02:25:56;9.60;99.90
48686;DHT22;34485;51.536;3.816;2022-09-27T02:28:32;9.60;99.90
48686;DHT22;34485;51.536;3.816;2022-09-27T02:31:00;9.80;99.90
48686;DHT22;34485;51.536;3.816;2022-09-27T02:33:30;9.80;99.90
48686;DHT22;34485;51.536;3.816;2022-09-27T02:35:58;9.80;99.90
48686;DHT22;34485;51.536;3.816;2022-09-27T02:38:24;9.70;99.90
48686;DHT22;34485;51.536;3.816;2022-09-27T02:40:49;9.70;99.90
48686;DHT22;34485;51.536;3.816;2022-09-27T02:43:17;9.60;99.90
48686;DHT22;34485;51.536;3.816;2022-09-27T02:54:19;9.50;99.90
48686;DHT22;34485;51.536;3.816;2022-09-27T03:07:05;9.80;99.90
48686;DHT22;34485;51.536;3.816;2022-09-27T03:10:00;9.80;99.90
48686;DHT22;34485;51.536;3.816;2022-09-27T03:12:25;9.80;99.90
48686;DHT22;34485;51.536;3.816;2022-09-27T03:14:56;9.80;99.90
48686;DHT22;34485;51.536;3.816;2022-09-27T03:17:23;9.80;99.90
48686;DHT22;34485;51.536;3.816;2022-09-27T03:19:48;9.90;99.90
48686;DHT22;34485;51.536;3.816;2022-09-27T03:22:14;9.90;99.90
48686;DHT22;34485;51.536;3.816;2022-09-27T03:24:40;9.90;99.90
48686;DHT22;34485;51.536;3.816;2022-09-27T03:27:06;9.90;99.90
48686;DHT22;34485;51.536;3.816;2022-09-27T03:29:31;9.90;99.90
48686;DHT22;34485;51.536;3.816;2022-09-27T03:31:57;9.90;99.90
48686;DHT22;34485;51.536;3.816;2022-09-27T03:34:23;10.00;99.90
48686;DHT22;34485;51.536;3.816;2022-09-27T03:36:49;10.00;99.90
48686;DHT22;34485;51.536;3.816;2022-09-27T03:39:14;10.00;99.90
48686;DHT22;34485;51.536;3.816;2022-09-27T03:41:40;9.90;99.90
48686;DHT22;34485;51.536;3.816;2022-09-27T03:44:06;9.90;99.90
48686;DHT22;34485;51.536;3.816;2022-09-27T03:46:31;9.90;99.90
48686;DHT22;34485;51.536;3.816;2022-09-27T03:48:57;9.90;99.90
48686;DHT22;34485;51.536;3.816;2022-09-27T03:51:23;9.90;99.90
48686;DHT22;34485;51.536;3.816;2022-09-27T03:53:48;9.90;99.90
48686;DHT22;34485;51.536;3.816;2022-09-27T03:56:14;9.90;99.90
48686;DHT22;34485;51.536;3.816;2022-09-27T03:58:40;9.80;99.90
48686;DHT22;34485;51.536;3.816;2022-09-27T04:03:32;9.40;99.90
48686;DHT22;34485;51.536;3.816;2022-09-27T04:05:57;9.70;99.90
48686;DHT22;34485;51.536;3.816;2022-09-27T04:08:25;9.70;99.90
48686;DHT22;34485;51.536;3.816;2022-09-27T04:10:50;9.80;99.90
48686;DHT22;34485;51.536;3.816;2022-09-27T04:13:16;9.80;99.90
48686;DHT22;34485;51.536;3.816;2022-09-27T04:15:42;9.80;99.90
48686;DHT22;34485;51.536;3.816;2022-09-27T04:18:07;9.90;99.90
48686;DHT22;34485;51.536;3.816;2022-09-27T04:20:35;9.90;99.90
48686;DHT22;34485;51.536;3.816;2022-09-27T04:23:01;9.90;99.90
48686;DHT22;34485;51.536;3.816;2022-09-27T04:25:26;9.90;99.90
48686;DHT22;34485;51.536;3.816;2022-09-27T04:27:52;10.00;99.90
48686;DHT22;34485;51.536;3.816;2022-09-27T04:30:21;10.10;99.90
48686;DHT22;34485;51.536;3.816;2022-09-27T04:32:46;10.00;99.90
48686;DHT22;34485;51.536;3.816;2022-09-27T04:35:13;10.00;99.90
48686;DHT22;34485;51.536;3.816;2022-09-27T04:37:58;10.00;99.90
48686;DHT22;34485;51.536;3.816;2022-09-27T04:40:24;10.00;99.90
48686;DHT22;34485;51.536;3.816;2022-09-27T04:42:50;10.10;99.90
48686;DHT22;34485;51.536;3.816;2022-09-27T04:45:17;10.10;99.90
48686;DHT22;34485;51.536;3.816;2022-09-27T04:47:44;10.20;99.90
48686;DHT22;34485;51.536;3.816;2022-09-27T04:50:10;10.30;99.90
48686;DHT22;34485;51.536;3.816;2022-09-27T04:52:36;10.30;99.90
48686;DHT22;34485;51.536;3.816;2022-09-27T04:59:54;10.50;99.90
48686;DHT22;34485;51.536;3.816;2022-09-27T05:02:19;10.30;99.90
48686;DHT22;34485;51.536;3.816;2022-09-27T05:04:45;10.20;99.90
48686;DHT22;34485;51.536;3.816;2022-09-27T05:07:10;10.20;99.90
48686;DHT22;34485;51.536;3.816;2022-09-27T05:09:36;10.10;99.90
48686;DHT22;34485;51.536;3.816;2022-09-27T05:12:02;10.10;99.90
48686;DHT22;34485;51.536;3.816;2022-09-27T05:14:31;10.00;99.90
48686;DHT22;34485;51.536;3.816;2022-09-27T05:16:57;10.00;99.90
48686;DHT22;34485;51.536;3.816;2022-09-27T05:19:22;10.00;99.90
48686;DHT22;34485;51.536;3.816;2022-09-27T05:21:48;10.00;99.90
48686;DHT22;34485;51.536;3.816;2022-09-27T05:24:15;10.00;99.90
48686;DHT22;34485;51.536;3.816;2022-09-27T05:26:40;10.00;99.90
48686;DHT22;34485;51.536;3.816;2022-09-27T05:29:06;10.10;99.90
48686;DHT22;34485;51.536;3.816;2022-09-27T05:31:32;10.00;99.90
48686;DHT22;34485;51.536;3.816;2022-09-27T05:33:57;10.00;99.90
48686;DHT22;34485;51.536;3.816;2022-09-27T05:36:23;10.00;99.90
48686;DHT22;34485;51.536;3.816;2022-09-27T05:38:48;10.00;99.90
48686;DHT22;34485;51.536;3.816;2022-09-27T05:41:14;10.00;99.90
48686;DHT22;34485;51.536;3.816;2022-09-27T05:43:40;10.00;99.90
48686;DHT22;34485;51.536;3.816;2022-09-27T05:46:06;10.00;99.90
48686;DHT22;34485;51.536;3.816;2022-09-27T05:48:32;10.00;99.90
48686;DHT22;34485;51.536;3.816;2022-09-27T05:50:57;10.00;99.90
48686;DHT22;34485;51.536;3.816;2022-09-27T05:53:23;10.10;99.90
48686;DHT22;34485;51.536;3.816;2022-09-27T05:55:49;10.00;99.90
48686;DHT22;34485;51.536;3.816;2022-09-27T05:58:14;10.00;99.90
48686;DHT22;34485;51.536;3.816;2022-09-27T06:00:41;10.00;99.90
48686;DHT22;34485;51.536;3.816;2022-09-27T06:03:08;9.90;99.90
48686;DHT22;34485;51.536;3.816;2022-09-27T06:13:19;10.00;99.90
48686;DHT22;34485;51.536;3.816;2022-09-27T06:15:44;10.00;99.90
48686;DHT22;34485;51.536;3.816;2022-09-27T06:18:13;9.90;99.90
48686;DHT22;34485;51.536;3.816;2022-09-27T06:20:40;9.90;99.90
48686;DHT22;34485;51.536;3.816;2022-09-27T06:23:18;9.90;99.90
48686;DHT22;34485;51.536;3.816;2022-09-27T06:25:44;9.80;99.90
48686;DHT22;34485;51.536;3.816;2022-09-27T06:28:11;9.80;99.90
48686;DHT22;34485;51.536;3.816;2022-09-27T06:30:39;9.80;99.90
48686;DHT22;34485;51.536;3.816;2022-09-27T06:33:06;9.80;99.90
48686;DHT22;34485;51.536;3.816;2022-09-27T06:38:03;9.90;99.90
48686;DHT22;34485;51.536;3.816;2022-09-27T06:40:29;9.80;99.90
48686;DHT22;34485;51.536;3.816;2022-09-27T06:43:01;9.80;99.90
48686;DHT22;34485;51.536;3.816;2022-09-27T06:45:27;9.70;99.90
48686;DHT22;34485;51.536;3.816;2022-09-27T06:47:52;9.70;99.90
48686;DHT22;34485;51.536;3.816;2022-09-27T06:50:18;9.70;99.90
48686;DHT22;34485;51.536;3.816;2022-09-27T06:52:48;9.80;99.90
48686;DHT22;34485;51.536;3.816;2022-09-27T07:34:49;10.30;99.90
48686;DHT22;34485;51.536;3.816;2022-09-27T07:37:15;10.20;99.90
48686;DHT22;34485;51.536;3.816;2022-09-27T07:39:41;10.20;99.90
48686;DHT22;34485;51.536;3.816;2022-09-27T07:42:07;10.30;99.90
48686;DHT22;34485;51.536;3.816;2022-09-27T07:44:32;10.40;99.90
48686;DHT22;34485;51.536;3.816;2022-09-27T07:46:58;10.50;99.90
48686;DHT22;34485;51.536;3.816;2022-09-27T07:49:23;10.70;99.90
48686;DHT22;34485;51.536;3.816;2022-09-27T07:51:49;10.80;99.90
48686;DHT22;34485;51.536;3.816;2022-09-27T07:54:16;10.90;99.90
48686;DHT22;34485;51.536;3.816;2022-09-27T07:56:44;11.00;99.90
48686;DHT22;34485;51.536;3.816;2022-09-27T07:59:10;11.10;99.90
48686;DHT22;34485;51.536;3.816;2022-09-27T08:01:35;11.10;99.90
48686;DHT22;34485;51.536;3.816;2022-09-27T08:04:01;10.90;99.90
48686;DHT22;34485;51.536;3.816;2022-09-27T08:06:26;10.80;99.90
48686;DHT22;34485;51.536;3.816;2022-09-27T08:08:52;10.80;99.90
48686;DHT22;34485;51.536;3.816;2022-09-27T08:11:19;10.70;99.90
48686;DHT22;34485;51.536;3.816;2022-09-27T08:13:46;10.60;99.90
48686;DHT22;34485;51.536;3.816;2022-09-27T08:16:14;10.50;99.90
48686;DHT22;34485;51.536;3.816;2022-09-27T08:18:40;10.40;99.90
48686;DHT22;34485;51.536;3.816;2022-09-27T08:21:05;10.40;99.90
48686;DHT22;34485;51.536;3.816;2022-09-27T08:23:31;10.40;99.90
48686;DHT22;34485;51.536;3.816;2022-09-27T08:25:56;10.30;99.90
48686;DHT22;34485;51.536;3.816;2022-09-27T08:28:24;10.30;99.90
48686;DHT22;34485;51.536;3.816;2022-09-27T08:30:50;10.30;99.90
48686;DHT22;34485;51.536;3.816;2022-09-27T08:33:16;10.40;99.90
48686;DHT22;34485;51.536;3.816;2022-09-27T08:35:42;10.50;99.90
48686;DHT22;34485;51.536;3.816;2022-09-27T08:38:09;10.70;99.90
48686;DHT22;34485;51.536;3.816;2022-09-27T08:40:58;10.90;99.90
48686;DHT22;34485;51.536;3.816;2022-09-27T08:48:50;11.70;99.90
48686;DHT22;34485;51.536;3.816;2022-09-27T08:51:20;11.80;99.90
48686;DHT22;34485;51.536;3.816;2022-09-27T08:54:19;11.90;99.90
48686;DHT22;34485;51.536;3.816;2022-09-27T08:56:46;12.00;99.90
48686;DHT22;34485;51.536;3.816;2022-09-27T08:59:27;12.10;99.90
48686;DHT22;34485;51.536;3.816;2022-09-27T09:01:54;12.10;99.90
48686;DHT22;34485;51.536;3.816;2022-09-27T09:04:32;12.20;99.90
48686;DHT22;34485;51.536;3.816;2022-09-27T09:12:53;12.70;98.10
48686;DHT22;34485;51.536;3.816;2022-09-27T09:23:46;13.50;92.20
48686;DHT22;34485;51.536;3.816;2022-09-27T09:26:46;13.60;94.30
48686;DHT22;34485;51.536;3.816;2022-09-27T09:32:20;13.70;91.20
48686;DHT22;34485;51.536;3.816;2022-09-27T09:35:06;13.70;90.60
48686;DHT22;34485;51.536;3.816;2022-09-27T09:37:38;13.80;90.20
48686;DHT22;34485;51.536;3.816;2022-09-27T09:40:22;14.00;90.90
48686;DHT22;34485;51.536;3.816;2022-09-27T09:43:14;14.00;90.90
48686;DHT22;34485;51.536;3.816;2022-09-27T09:45:46;13.80;90.00
48686;DHT22;34485;51.536;3.816;2022-09-27T09:48:45;13.70;90.10
48686;DHT22;34485;51.536;3.816;2022-09-27T09:51:18;13.50;90.10
48686;DHT22;34485;51.536;3.816;2022-09-27T09:54:01;13.30;91.30
48686;DHT22;34485;51.536;3.816;2022-09-27T09:56:31;13.30;92.30
48686;DHT22;34485;51.536;3.816;2022-09-27T10:01:44;13.20;90.00
48686;DHT22;34485;51.536;3.816;2022-09-27T10:04:21;13.40;90.60
48686;DHT22;34485;51.536;3.816;2022-09-27T10:06:48;14.00;87.00
48686;DHT22;34485;51.536;3.816;2022-09-27T10:09:15;14.30;85.90
48686;DHT22;34485;51.536;3.816;2022-09-27T10:11:44;14.30;84.20
48686;DHT22;34485;51.536;3.816;2022-09-27T10:14:15;14.50;82.60
48686;DHT22;34485;51.536;3.816;2022-09-27T10:16:45;14.60;83.90
48686;DHT22;34485;51.536;3.816;2022-09-27T10:21:42;14.50;83.30
48686;DHT22;34485;51.536;3.816;2022-09-27T10:26:36;15.70;77.30
48686;DHT22;34485;51.536;3.816;2022-09-27T10:29:27;16.30;77.20
48686;DHT22;34485;51.536;3.816;2022-09-27T10:31:53;16.10;74.10
48686;DHT22;34485;51.536;3.816;2022-09-27T10:34:24;15.70;71.80
48686;DHT22;34485;51.536;3.816;2022-09-27T10:37:23;15.40;76.10
48686;DHT22;34485;51.536;3.816;2022-09-27T10:39:50;15.40;76.60
48686;DHT22;34485;51.536;3.816;2022-09-27T10:42:36;15.40;76.80
48686;DHT22;34485;51.536;3.816;2022-09-27T10:45:24;15.40;76.80
48686;DHT22;34485;51.536;3.816;2022-09-27T10:47:51;15.00;75.90
48686;DHT22;34485;51.536;3.816;2022-09-27T10:52:46;14.30;78.70
48686;DHT22;34485;51.536;3.816;2022-09-27T10:55:24;14.20;82.10
48686;DHT22;34485;51.536;3.816;2022-09-27T10:57:52;14.20;83.00
48686;DHT22;34485;51.536;3.816;2022-09-27T11:00:30;14.00;83.50
48686;DHT22;34485;51.536;3.816;2022-09-27T11:03:00;14.10;78.90
48686;DHT22;34485;51.536;3.816;2022-09-27T11:08:00;14.60;77.30
48686;DHT22;34485;51.536;3.816;2022-09-27T11:10:35;15.00;77.90
48686;DHT22;34485;51.536;3.816;2022-09-27T11:13:17;15.30;76.60
48686;DHT22;34485;51.536;3.816;2022-09-27T11:18:54;15.50;73.30
48686;DHT22;34485;51.536;3.816;2022-09-27T11:30:20;15.40;72.10
48686;DHT22;34485;51.536;3.816;2022-09-27T11:38:30;15.20;75.70
48686;DHT22;34485;51.536;3.816;2022-09-27T11:46:34;15.20;72.10
48686;DHT22;34485;51.536;3.816;2022-09-27T11:49:28;15.10;73.70
48686;DHT22;34485;51.536;3.816;2022-09-27T11:57:35;15.50;73.50
48686;DHT22;34485;51.536;3.816;2022-09-27T12:06:02;16.40;64.50
48686;DHT22;34485;51.536;3.816;2022-09-27T12:11:21;16.90;65.70
48686;DHT22;34485;51.536;3.816;2022-09-27T12:14:01;16.80;63.30
48686;DHT22;34485;51.536;3.816;2022-09-27T12:16:29;16.80;64.90
48686;DHT22;34485;51.536;3.816;2022-09-27T12:18:57;16.60;65.10
48686;DHT22;34485;51.536;3.816;2022-09-27T12:21:24;16.50;66.90
48686;DHT22;34485;51.536;3.816;2022-09-27T12:23:54;16.10;66.50
48686;DHT22;34485;51.536;3.816;2022-09-27T12:29:14;15.70;98.90
48686;DHT22;34485;51.536;3.816;2022-09-27T12:32:04;15.60;73.20
48686;DHT22;34485;51.536;3.816;2022-09-27T12:34:39;15.60;73.60
48686;DHT22;34485;51.536;3.816;2022-09-27T12:42:21;16.20;73.90
48686;DHT22;34485;51.536;3.816;2022-09-27T12:44:49;16.30;71.40
48686;DHT22;34485;51.536;3.816;2022-09-27T12:47:41;16.30;70.70
48686;DHT22;34485;51.536;3.816;2022-09-27T12:53:00;15.80;75.30
48686;DHT22;34485;51.536;3.816;2022-09-27T13:01:06;15.00;81.30
48686;DHT22;34485;51.536;3.816;2022-09-27T13:11:33;14.70;99.90
48686;DHT22;34485;51.536;3.816;2022-09-27T13:14:02;14.80;92.40
48686;DHT22;34485;51.536;3.816;2022-09-27T13:16:28;15.00;91.20
48686;DHT22;34485;51.536;3.816;2022-09-27T13:18:58;15.20;90.80
48686;DHT22;34485;51.536;3.816;2022-09-27T13:24:39;15.50;90.60
48686;DHT22;34485;51.536;3.816;2022-09-27T13:45:40;13.90;96.40
48686;DHT22;34485;51.536;3.816;2022-09-27T13:50:50;13.40;99.00
48686;DHT22;34485;51.536;3.816;2022-09-27T13:53:35;13.30;99.90
48686;DHT22;34485;51.536;3.816;2022-09-27T13:56:03;13.40;99.90
48686;DHT22;34485;51.536;3.816;2022-09-27T14:00:59;13.90;99.90
48686;DHT22;34485;51.536;3.816;2022-09-27T14:03:36;14.20;99.90
48686;DHT22;34485;51.536;3.816;2022-09-27T14:06:07;14.30;99.30
48686;DHT22;34485;51.536;3.816;2022-09-27T14:08:48;14.30;97.90
48686;DHT22;34485;51.536;3.816;2022-09-27T14:11:22;14.30;97.30
48686;DHT22;34485;51.536;3.816;2022-09-27T14:13:49;14.30;96.80
48686;DHT22;34485;51.536;3.816;2022-09-27T14:16:17;14.20;97.00
48686;DHT22;34485;51.536;3.816;2022-09-27T14:21:35;14.00;96.10
48686;DHT22;34485;51.536;3.816;2022-09-27T14:27:10;13.40;94.90
48686;DHT22;34485;51.536;3.816;2022-09-27T14:29:43;13.20;95.00
48686;DHT22;34485;51.536;3.816;2022-09-27T14:32:16;13.00;95.10
48686;DHT22;34485;51.536;3.816;2022-09-27T14:34:42;12.90;96.30
48686;DHT22;34485;51.536;3.816;2022-09-27T14:37:18;13.00;98.30
48686;DHT22;34485;51.536;3.816;2022-09-27T14:40:18;13.20;99.90
48686;DHT22;34485;51.536;3.816;2022-09-27T14:42:44;13.50;99.90
48686;DHT22;34485;51.536;3.816;2022-09-27T14:47:56;14.00;99.70
48686;DHT22;34485;51.536;3.816;2022-09-27T14:50:27;14.10;97.10
48686;DHT22;34485;51.536;3.816;2022-09-27T14:52:55;14.10;96.10
48686;DHT22;34485;51.536;3.816;2022-09-27T14:55:26;14.00;95.50
48686;DHT22;34485;51.536;3.816;2022-09-27T14:57:58;14.00;96.60
48686;DHT22;34485;51.536;3.816;2022-09-27T15:00:26;14.00;96.30
48686;DHT22;34485;51.536;3.816;2022-09-27T15:02:56;13.90;95.00
48686;DHT22;34485;51.536;3.816;2022-09-27T15:05:28;14.00;96.20
48686;DHT22;34485;51.536;3.816;2022-09-27T15:07:57;14.00;96.30
48686;DHT22;34485;51.536;3.816;2022-09-27T15:10:28;14.10;94.60
48686;DHT22;34485;51.536;3.816;2022-09-27T15:12:56;14.20;94.20
48686;DHT22;34485;51.536;3.816;2022-09-27T15:15:30;14.20;92.80
48686;DHT22;34485;51.536;3.816;2022-09-27T15:17:57;14.20;93.10
48686;DHT22;34485;51.536;3.816;2022-09-27T15:22:57;14.20;91.50
48686;DHT22;34485;51.536;3.816;2022-09-27T15:25:35;14.20;91.30
48686;DHT22;34485;51.536;3.816;2022-09-27T15:30:37;14.10;91.10
48686;DHT22;34485;51.536;3.816;2022-09-27T15:33:04;14.10;91.60
48686;DHT22;34485;51.536;3.816;2022-09-27T15:35:32;14.00;91.60
48686;DHT22;34485;51.536;3.816;2022-09-27T15:38:11;14.00;90.50
48686;DHT22;34485;51.536;3.816;2022-09-27T15:45:54;14.00;91.90
48686;DHT22;34485;51.536;3.816;2022-09-27T15:50:48;14.00;99.90
48686;DHT22;34485;51.536;3.816;2022-09-27T15:56:02;14.00;99.90
48686;DHT22;34485;51.536;3.816;2022-09-27T15:58:29;14.00;99.90
48686;DHT22;34485;51.536;3.816;2022-09-27T16:01:01;13.90;99.90
48686;DHT22;34485;51.536;3.816;2022-09-27T16:03:27;13.90;99.90
48686;DHT22;34485;51.536;3.816;2022-09-27T16:05:55;13.90;99.90
48686;DHT22;34485;51.536;3.816;2022-09-27T16:08:21;13.90;99.90
48686;DHT22;34485;51.536;3.816;2022-09-27T16:10:52;13.90;99.90
48686;DHT22;34485;51.536;3.816;2022-09-27T16:13:20;13.90;99.90
48686;DHT22;34485;51.536;3.816;2022-09-27T16:15:46;13.90;99.90
48686;DHT22;34485;51.536;3.816;2022-09-27T16:18:12;13.90;99.90
48686;DHT22;34485;51.536;3.816;2022-09-27T16:20:38;13.90;99.90
48686;DHT22;34485;51.536;3.816;2022-09-27T16:25:30;13.90;98.90
48686;DHT22;34485;51.536;3.816;2022-09-27T16:27:59;13.90;99.90
48686;DHT22;34485;51.536;3.816;2022-09-27T16:30:26;13.80;92.90
48686;DHT22;34485;51.536;3.816;2022-09-27T16:32:52;13.90;92.70
48686;DHT22;34485;51.536;3.816;2022-09-27T16:35:21;13.90;92.60
48686;DHT22;34485;51.536;3.816;2022-09-27T16:37:47;13.90;92.40
48686;DHT22;34485;51.536;3.816;2022-09-27T16:40:14;13.90;92.40
48686;DHT22;34485;51.536;3.816;2022-09-27T16:42:42;13.90;92.90
48686;DHT22;34485;51.536;3.816;2022-09-27T16:45:09;13.90;92.50
48686;DHT22;34485;51.536;3.816;2022-09-27T16:47:35;13.80;93.20
48686;DHT22;34485;51.536;3.816;2022-09-27T16:50:02;13.80;93.90
48686;DHT22;34485;51.536;3.816;2022-09-27T16:52:46;13.70;94.30
48686;DHT22;34485;51.536;3.816;2022-09-27T16:55:15;13.60;91.60
48686;DHT22;34485;51.536;3.816;2022-09-27T16:57:49;13.20;92.20
48686;DHT22;34485;51.536;3.816;2022-09-27T17:00:15;12.60;94.60
48686;DHT22;34485;51.536;3.816;2022-09-27T17:02:41;12.10;99.30
48686;DHT22;34485;51.536;3.816;2022-09-27T17:05:11;11.70;99.90
48686;DHT22;34485;51.536;3.816;2022-09-27T17:07:37;11.50;99.90
48686;DHT22;34485;51.536;3.816;2022-09-27T17:10:03;11.30;99.90
48686;DHT22;34485;51.536;3.816;2022-09-27T17:12:30;11.10;99.90
48686;DHT22;34485;51.536;3.816;2022-09-27T17:14:56;10.90;99.90
48686;DHT22;34485;51.536;3.816;2022-09-27T17:17:22;10.80;99.90
48686;DHT22;34485;51.536;3.816;2022-09-27T17:19:48;10.70;99.90
48686;DHT22;34485;51.536;3.816;2022-09-27T17:22:13;10.60;99.90
48686;DHT22;34485;51.536;3.816;2022-09-27T17:24:39;10.60;99.90
48686;DHT22;34485;51.536;3.816;2022-09-27T17:27:04;10.60;99.90
48686;DHT22;34485;51.536;3.816;2022-09-27T17:29:30;10.60;99.90
48686;DHT22;34485;51.536;3.816;2022-09-27T17:34:22;10.70;99.90
48686;DHT22;34485;51.536;3.816;2022-09-27T17:36:47;10.60;99.90
48686;DHT22;34485;51.536;3.816;2022-09-27T17:39:17;10.70;99.90
48686;DHT22;34485;51.536;3.816;2022-09-27T17:41:43;10.70;99.90
48686;DHT22;34485;51.536;3.816;2022-09-27T17:44:12;10.60;99.90
48686;DHT22;34485;51.536;3.816;2022-09-27T17:46:38;10.70;99.90
48686;DHT22;34485;51.536;3.816;2022-09-27T17:49:04;10.70;99.90
48686;DHT22;34485;51.536;3.816;2022-09-27T17:51:50;10.70;99.90
48686;DHT22;34485;51.536;3.816;2022-09-27T17:54:16;10.60;99.90
48686;DHT22;34485;51.536;3.816;2022-09-27T17:56:44;10.60;99.90
48686;DHT22;34485;51.536;3.816;2022-09-27T17:59:12;10.60;99.90
48686;DHT22;34485;51.536;3.816;2022-09-27T18:01:39;10.50;99.90
48686;DHT22;34485;51.536;3.816;2022-09-27T18:04:07;10.50;99.90
48686;DHT22;34485;51.536;3.816;2022-09-27T18:06:36;10.40;99.90
48686;DHT22;34485;51.536;3.816;2022-09-27T18:09:04;10.30;99.90
48686;DHT22;34485;51.536;3.816;2022-09-27T18:11:30;10.20;99.90
48686;DHT22;34485;51.536;3.816;2022-09-27T18:13:58;10.20;99.90
48686;DHT22;34485;51.536;3.816;2022-09-27T18:16:32;10.10;99.90
48686;DHT22;34485;51.536;3.816;2022-09-27T18:19:02;10.10;99.90
48686;DHT22;34485;51.536;3.816;2022-09-27T18:21:29;10.10;99.90
48686;DHT22;34485;51.536;3.816;2022-09-27T18:23:57;10.10;99.90
48686;DHT22;34485;51.536;3.816;2022-09-27T18:26:24;10.10;99.90
48686;DHT22;34485;51.536;3.816;2022-09-27T18:28:53;10.10;99.90
48686;DHT22;34485;51.536;3.816;2022-09-27T18:31:21;10.00;99.90
48686;DHT22;34485;51.536;3.816;2022-09-27T18:33:48;10.00;99.90
48686;DHT22;34485;51.536;3.816;2022-09-27T18:36:16;10.00;99.90
48686;DHT22;34485;51.536;3.816;2022-09-27T18:38:43;9.90;99.90
48686;DHT22;34485;51.536;3.816;2022-09-27T18:41:13;9.90;99.90
48686;DHT22;34485;51.536;3.816;2022-09-27T18:43:40;10.00;99.90
48686;DHT22;34485;51.536;3.816;2022-09-27T18:46:08;10.10;99.90
48686;DHT22;34485;51.536;3.816;2022-09-27T18:48:36;10.10;99.90
48686;DHT22;34485;51.536;3.816;2022-09-27T18:51:10;10.10;99.90
48686;DHT22;34485;51.536;3.816;2022-09-27T18:53:36;10.10;99.90
48686;DHT22;34485;51.536;3.816;2022-09-27T18:56:03;10.00;99.90
48686;DHT22;34485;51.536;3.816;2022-09-27T18:58:30;10.00;99.90
48686;DHT22;34485;51.536;3.816;2022-09-27T19:01:01;10.00;99.90
48686;DHT22;34485;51.536;3.816;2022-09-27T19:03:27;9.90;99.90
48686;DHT22;34485;51.536;3.816;2022-09-27T19:06:04;9.90;99.90
48686;DHT22;34485;51.536;3.816;2022-09-27T19:08:30;9.90;99.90
48686;DHT22;34485;51.536;3.816;2022-09-27T19:11:02;9.80;99.90
48686;DHT22;34485;51.536;3.816;2022-09-27T19:13:28;9.80;99.90
48686;DHT22;34485;51.536;3.816;2022-09-27T19:15:54;9.80;99.90
48686;DHT22;34485;51.536;3.816;2022-09-27T19:18:21;9.80;99.90
48686;DHT22;34485;51.536;3.816;2022-09-27T19:20:47;9.90;99.90
48686;DHT22;34485;51.536;3.816;2022-09-27T19:23:12;9.90;99.90
48686;DHT22;34485;51.536;3.816;2022-09-27T19:25:41;9.90;99.90
48686;DHT22;34485;51.536;3.816;2022-09-27T19:28:06;9.90;99.90
48686;DHT22;34485;51.536;3.816;2022-09-27T19:32:58;9.90;99.90
48686;DHT22;34485;51.536;3.816;2022-09-27T19:35:24;9.80;99.90
48686;DHT22;34485;51.536;3.816;2022-09-27T19:37:49;9.90;99.90
48686;DHT22;34485;51.536;3.816;2022-09-27T19:40:15;9.90;99.90
48686;DHT22;34485;51.536;3.816;2022-09-27T19:42:41;9.80;99.90
48686;DHT22;34485;51.536;3.816;2022-09-27T19:45:07;9.80;99.90
48686;DHT22;34485;51.536;3.816;2022-09-27T19:47:33;9.90;99.90
48686;DHT22;34485;51.536;3.816;2022-09-27T19:49:59;9.90;99.90
48686;DHT22;34485;51.536;3.816;2022-09-27T19:52:24;9.90;99.90
48686;DHT22;34485;51.536;3.816;2022-09-27T19:57:16;9.80;99.90
48686;DHT22;34485;51.536;3.816;2022-09-27T19:59:42;9.70;99.90
48686;DHT22;34485;51.536;3.816;2022-09-27T20:02:08;9.60;99.90
48686;DHT22;34485;51.536;3.816;2022-09-27T20:04:34;9.60;99.90
48686;DHT22;34485;51.536;3.816;2022-09-27T20:24:04;10.20;99.90
48686;DHT22;34485;51.536;3.816;2022-09-27T20:26:30;9.50;99.90
48686;DHT22;34485;51.536;3.816;2022-09-27T20:28:58;9.40;99.90
48686;DHT22;34485;51.536;3.816;2022-09-27T20:33:51;9.30;99.90
48686;DHT22;34485;51.536;3.816;2022-09-27T20:36:29;9.30;99.90
48686;DHT22;34485;51.536;3.816;2022-09-27T20:39:03;9.30;99.90
48686;DHT22;34485;51.536;3.816;2022-09-27T20:41:31;9.30;99.90